Time;durP1;ratioP1;P1;durP2;ratioP2;P2;SDS_P1;SDS_P2;PMS_P1;PMS_P2;Temp;Humidity;BMP_temperature;BMP_pressure;BME280_temperature;BME280_humidity;BME280_pressure;Samples;Min_cycle;Max_cycle;Signal;HPM_P1;HPM_P2
2022/12/15 02:19:54;;;;;;;8.13;6.03;;;;;;;-3.22;100.00;99531.34;1805034;77;21317;-60
2022/12/15 02:22:46;;;;;;;6.97;5.92;;;;;;;-3.05;100.00;99534.09;1813178;77;21426;-60
2022/12/15 02:26:00;;;;;;;9.33;6.03;;;;;;;-2.94;100.00;99526.45;1796893;77;22032;-62
2022/12/15 02:28:53;;;;;;;8.75;5.33;;;;;;;-2.82;100.00;99528.30;1803829;77;21414;-60
2022/12/15 02:31:48;;;;;;;7.00;5.65;;;;;;;-2.67;100.00;99511.70;1809066;77;21434;-60
2022/12/15 02:34:44;;;;;;;6.47;5.10;;;;;;;-2.60;100.00;99519.04;1805108;77;22082;-60
2022/12/15 02:37:18;;;;;;;6.10;5.42;;;;;;;-2.57;100.00;99515.22;1800026;77;21592;-61
2022/12/15 02:39:44;;;;;;;6.17;4.70;;;;;;;-2.56;100.00;99506.22;1794386;78;21545;-62
2022/12/15 02:42:11;;;;;;;5.93;5.33;;;;;;;-2.55;100.00;99512.23;1808945;78;21529;-62
2022/12/15 02:44:58;;;;;;;6.33;5.15;;;;;;;-2.56;100.00;99526.82;1794073;77;21477;-62
2022/12/15 02:48:02;;;;;;;6.10;4.90;;;;;;;-2.53;100.00;99513.53;1797692;78;21887;-60
2022/12/15 02:50:44;;;;;;;7.17;5.30;;;;;;;-2.51;100.00;99515.26;1815354;77;21567;-60
2022/12/15 02:53:40;;;;;;;5.15;4.60;;;;;;;-2.55;100.00;99524.66;1811278;77;21572;-61
2022/12/15 02:56:28;;;;;;;6.25;5.42;;;;;;;-2.50;100.00;99508.42;1805060;78;21572;-61
2022/12/15 02:59:15;;;;;;;5.85;5.25;;;;;;;-2.48;100.00;99510.14;1808254;78;21559;-60
2022/12/15 03:01:58;;;;;;;7.25;5.50;;;;;;;-2.55;100.00;99513.52;1808676;77;21808;-60
2022/12/15 03:04:24;;;;;;;5.20;4.70;;;;;;;-2.53;100.00;99505.80;1808811;77;21513;-60
2022/12/15 03:07:02;;;;;;;5.67;3.87;;;;;;;-2.51;100.00;99525.98;1805593;77;21537;-62
2022/12/15 03:09:30;;;;;;;5.53;4.67;;;;;;;-2.57;100.00;99523.80;1806225;77;21624;-59
2022/12/15 03:11:57;;;;;;;7.08;4.85;;;;;;;-2.58;100.00;99524.66;1808196;78;21470;-60
2022/12/15 03:14:25;;;;;;;7.95;5.75;;;;;;;-2.57;100.00;99518.64;1809047;77;21439;-59
2022/12/15 03:16:53;;;;;;;6.40;5.33;;;;;;;-2.63;100.00;99518.60;1794189;77;21515;-60
2022/12/15 03:19:19;;;;;;;7.30;5.72;;;;;;;-2.65;100.00;99524.59;1809444;77;21151;-60
2022/12/15 03:21:47;;;;;;;6.47;5.62;;;;;;;-2.79;100.00;99522.77;1808341;78;21482;-60
2022/12/15 03:24:14;;;;;;;6.72;5.15;;;;;;;-2.79;100.00;99523.17;1800090;77;21039;-59
2022/12/15 03:26:42;;;;;;;6.90;5.87;;;;;;;-2.83;100.00;99537.71;1809502;77;21745;-58
2022/12/15 03:29:09;;;;;;;;;;;;;;;-2.85;100.00;99538.13;1759224;80;21546;-60
2022/12/15 03:31:35;;;;;;;6.20;5.50;;;;;;;-2.94;100.00;99540.61;1764743;80;20490;-60
2022/12/15 03:34:02;;;;;;;5.62;4.75;;;;;;;-2.96;100.00;99541.91;1759213;80;21439;-60
2022/12/15 03:36:29;;;;;;;6.58;5.12;;;;;;;-2.93;100.00;99542.34;1747879;80;21421;-60
2022/12/15 03:38:55;;;;;;;5.47;4.90;;;;;;;-2.92;100.00;99536.33;1732596;80;21501;-60
2022/12/15 03:41:23;;;;;;;6.12;5.45;;;;;;;-2.93;100.00;99532.05;1730194;81;21529;-60
2022/12/15 03:43:50;;;;;;;6.22;5.40;;;;;;;-2.90;100.00;99521.80;1772237;79;21589;-59
2022/12/15 03:46:16;;;;;;;6.55;5.22;;;;;;;-2.92;100.00;99531.62;1754427;80;21562;-60
2022/12/15 03:48:43;;;;;;;6.40;5.70;;;;;;;-2.90;100.00;99523.09;1769862;80;21655;-60
2022/12/15 03:51:09;;;;;;;6.05;5.45;;;;;;;-2.89;100.00;99522.22;1756709;80;21780;-59
2022/12/15 03:53:36;;;;;;;6.25;5.20;;;;;;;-2.89;100.00;99523.52;1807199;77;21435;-60
2022/12/15 03:56:03;;;;;;;6.67;5.70;;;;;;;-2.90;100.00;99530.81;1804511;77;21470;-60
2022/12/15 03:58:29;;;;;;;6.17;5.27;;;;;;;-2.89;100.00;99529.94;1800275;77;21427;-60
2022/12/15 04:00:56;;;;;;;6.10;5.40;;;;;;;-2.85;100.00;99526.98;1806045;78;21533;-60
2022/12/15 04:03:23;;;;;;;5.42;4.85;;;;;;;-2.82;100.00;99514.16;1797867;77;21799;-60
2022/12/15 04:05:49;;;;;;;6.28;5.08;;;;;;;-2.79;100.00;99501.30;1806008;77;21530;-60
2022/12/15 04:08:16;;;;;;;7.10;5.35;;;;;;;-2.77;100.00;99492.76;1809723;77;20978;-60
2022/12/15 04:10:43;;;;;;;5.95;5.28;;;;;;;-2.72;100.00;99490.64;1804548;77;21620;-60
2022/12/15 04:13:10;;;;;;;7.12;5.90;;;;;;;-2.68;100.00;99477.80;1800491;78;21577;-58
2022/12/15 04:15:38;;;;;;;6.87;5.93;;;;;;;-2.66;100.00;99495.83;1804172;77;21395;-59
2022/12/15 04:18:08;;;;;;;6.45;5.78;;;;;;;-2.68;100.00;99498.82;1806226;77;21810;-59
2022/12/15 04:20:37;;;;;;;7.53;5.97;;;;;;;-2.62;100.00;99491.14;1796392;77;21474;-59
2022/12/15 04:23:06;;;;;;;;;;;;;;;-2.69;100.00;99492.82;1804704;77;21510;-60
2022/12/15 05:33:04;;;;;;;6.80;5.80;;;;;;;-1.73;100.00;99459.48;1665495;84;21547;-60
2022/12/15 05:35:30;;;;;;;9.13;6.30;;;;;;;-1.61;100.00;99473.70;1670824;83;21642;-61
2022/12/15 05:37:57;;;;;;;6.92;5.62;;;;;;;-1.50;100.00;99461.28;1672371;83;21812;-61
2022/12/15 05:40:24;;;;;;;6.45;5.53;;;;;;;-1.43;100.00;99454.86;1680844;83;21508;-60
2022/12/15 05:42:50;;;;;;;6.58;5.55;;;;;;;-1.37;100.00;99440.68;1673458;83;20984;-60
2022/12/15 05:45:17;;;;;;;7.83;5.40;;;;;;;-1.30;100.00;99447.13;1666682;84;21551;-59
2022/12/15 05:47:43;;;;;;;6.25;5.47;;;;;;;-1.01;100.00;99437.72;1674554;84;21531;-61
2022/12/15 05:50:10;;;;;;;7.08;5.53;;;;;;;0.20;100.00;99430.63;1666662;83;21819;-61
2022/12/15 05:52:37;;;;;;;6.22;5.15;;;;;;;1.83;100.00;99430.72;1669328;84;21580;-61
2022/12/15 05:55:05;;;;;;;6.17;4.97;;;;;;;5.57;100.00;99409.56;1674067;84;21531;-61
2022/12/15 05:57:32;;;;;;;6.50;5.67;;;;;;;14.02;100.00;99458.10;1677395;84;21527;-62
2022/12/15 05:59:58;;;;;;;7.22;5.35;;;;;;;31.88;100.00;99585.08;1680349;83;21481;-62
2022/12/15 06:02:27;;;;;;;5.42;4.85;;;;;;;28.01;100.00;99104.95;1667023;84;22177;-61
2022/12/15 06:04:54;;;;;;;5.97;5.20;;;;;;;27.64;65.32;99110.83;1670080;83;21523;-61
2022/12/15 06:07:20;;;;;;;7.33;6.50;;;;;;;27.06;50.33;99097.66;1671907;83;21575;-59
2022/12/15 06:09:47;;;;;;;7.42;5.50;;;;;;;27.36;44.27;99113.37;1637597;86;21782;-59
2022/12/15 06:12:13;;;;;;;6.10;5.50;;;;;;;27.56;100.00;99107.72;1665527;84;21040;-59
2022/12/15 06:14:40;;;;;;;6.42;5.70;;;;;;;26.84;51.06;99119.63;1668319;84;21657;-60
2022/12/15 06:17:07;;;;;;;6.08;5.17;;;;;;;26.73;50.09;99113.67;1650006;86;21474;-59
2022/12/15 06:19:34;;;;;;;6.80;5.35;;;;;;;26.46;44.91;99112.34;1667422;84;21512;-59
2022/12/15 06:22:01;;;;;;;5.97;5.42;;;;;;;25.97;45.88;99109.48;1640764;85;21564;-59
2022/12/15 06:24:28;;;;;;;6.40;5.80;;;;;;;26.13;44.04;99103.17;1675012;84;20973;-59
2022/12/15 06:26:54;;;;;;;6.78;5.53;;;;;;;26.08;44.20;99099.34;1672401;83;21843;-59
2022/12/15 06:29:21;;;;;;;8.13;5.60;;;;;;;26.10;42.33;99094.61;1666845;84;21578;-59
2022/12/15 06:31:47;;;;;;;5.85;5.25;;;;;;;26.00;41.55;99089.46;1675317;84;21452;-59
2022/12/15 06:34:15;;;;;;;5.67;5.17;;;;;;;26.21;40.58;99088.80;1672380;83;21552;-59
2022/12/15 06:36:43;;;;;;;6.12;5.53;;;;;;;26.61;39.33;99073.33;1664744;83;21623;-59
2022/12/15 06:39:12;;;;;;;6.97;6.15;;;;;;;27.04;37.06;99083.01;1672805;83;21878;-58
2022/12/15 06:41:39;;;;;;;7.08;5.95;;;;;;;27.15;35.82;99077.66;1672054;84;21468;-58
2022/12/15 06:44:05;;;;;;;6.80;5.45;;;;;;;27.24;35.20;99072.50;1668661;84;21495;-59
2022/12/15 06:46:33;;;;;;;6.67;6.08;;;;;;;27.07;61.30;99088.05;1669808;83;21602;-58
2022/12/15 06:49:01;;;;;;;8.58;5.58;;;;;;;27.30;41.34;99069.59;1677255;84;21512;-59
2022/12/15 06:51:29;;;;;;;7.20;5.60;;;;;;;27.61;37.68;99067.98;1662440;84;21917;-59
2022/12/15 10:32:51;;;;;;;5.05;4.60;;;;;;;3.46;100.00;99330.11;1678881;82;21553;-60
2022/12/15 10:35:25;;;;;;;4.87;4.47;;;;;;;3.53;100.00;99602.52;1662871;83;21588;-60
2022/12/15 10:37:56;;;;;;;4.67;4.20;;;;;;;3.56;100.00;99634.54;1687714;83;21454;-60
2022/12/15 10:40:48;;;;;;;5.15;4.65;;;;;;;3.57;100.00;99641.44;1684763;83;21474;-62
2022/12/15 10:43:35;;;;;;;4.62;4.22;;;;;;;3.63;100.00;99652.19;1689217;83;21919;-61
2022/12/15 10:46:17;;;;;;;4.03;3.70;;;;;;;3.80;100.00;99650.20;1721129;81;21044;-61
2022/12/15 10:48:50;;;;;;;4.28;3.72;;;;;;;3.82;100.00;99644.98;1711646;81;21555;-61
2022/12/15 10:51:35;;;;;;;4.37;3.98;;;;;;;3.88;100.00;99625.36;1718146;81;21500;-62
2022/12/15 10:54:12;;;;;;;28.55;25.95;;;;;;;3.98;100.00;99603.54;1708520;81;21620;-60
2022/12/15 10:56:53;;;;;;;11.08;10.18;;;;;;;4.17;100.00;99585.02;1718273;81;21854;-60
2022/12/15 10:59:35;;;;;;;7.65;7.05;;;;;;;4.24;100.00;99554.95;1710122;81;21489;-61
2022/12/15 11:02:22;;;;;;;5.45;4.95;;;;;;;4.12;100.00;99519.17;1686126;84;21616;-60
2022/12/15 11:05:06;;;;;;;5.05;4.58;;;;;;;4.15;100.00;99491.36;1686084;84;21499;-60
2022/12/15 11:40:25;;;;;;;4.25;3.85;;;;;;;0.89;100.00;99450.11;1770726;78;22762;-58
2022/12/15 11:43:18;;;;;;;4.92;4.42;;;;;;;1.86;100.00;99570.67;1728730;80;21474;-64
2022/12/15 11:46:16;;;;;;;5.87;4.58;;;;;;;2.11;100.00;99577.81;1733393;80;21848;-59
2022/12/15 11:49:09;;;;;;;5.08;4.58;;;;;;;2.53;100.00;99570.45;1731251;80;21512;-60
2022/12/15 11:51:43;;;;;;;5.25;4.72;;;;;;;2.49;100.00;99562.29;1740322;80;21418;-57
2022/12/15 11:54:31;;;;;;;6.05;5.37;;;;;;;2.60;100.00;99550.91;1736196;80;21541;-57
2022/12/15 11:57:15;;;;;;;5.40;4.90;;;;;;;2.70;100.00;99537.80;1699467;83;21549;-59
2022/12/15 11:59:53;;;;;;;7.10;6.30;;;;;;;2.81;100.00;99523.84;1711258;81;21796;-57
2022/12/15 12:02:34;;;;;;;5.70;5.10;;;;;;;2.98;100.00;99509.33;1696879;83;21519;-57
2022/12/15 12:05:27;;;;;;;16.25;10.20;;;;;;;3.06;100.00;99510.92;1695749;83;21011;-56
2022/12/15 12:08:31;;;;;;;11.03;7.40;;;;;;;3.05;100.00;99487.56;1700273;83;21443;-57
2022/12/15 12:11:20;;;;;;;8.55;6.92;;;;;;;3.15;100.00;99476.62;1684747;83;21824;-57
2022/12/15 12:14:17;;;;;;;8.60;5.90;;;;;;;3.18;100.00;99463.55;1692639;83;22221;-56
2022/12/15 12:17:06;;;;;;;11.97;7.35;;;;;;;3.07;100.00;99456.80;1682678;83;21553;-57
2022/12/15 12:19:43;;;;;;;8.60;5.85;;;;;;;3.10;100.00;99452.84;1689446;83;21450;-57
2022/12/15 12:22:31;;;;;;;9.33;6.25;;;;;;;3.19;100.00;99455.75;1698315;82;21036;-56
2022/12/15 12:25:17;;;;;;;10.98;7.37;;;;;;;3.25;100.00;99446.55;1695225;82;21601;-57
2022/12/15 12:28:04;;;;;;;7.25;6.10;;;;;;;3.31;100.00;99450.36;1708208;82;21855;-56
2022/12/15 12:30:41;;;;;;;5.62;5.12;;;;;;;3.36;100.00;99448.12;1681866;84;21520;-56
2022/12/15 12:33:36;;;;;;;6.85;6.05;;;;;;;3.38;100.00;99445.91;1689516;83;21538;-56
2022/12/15 12:36:12;;;;;;;6.33;5.47;;;;;;;3.30;100.00;99438.24;1688305;83;21542;-57
2022/12/15 12:38:49;;;;;;;6.53;5.60;;;;;;;3.30;100.00;99438.24;1699365;83;21589;-56
2022/12/15 12:41:42;;;;;;;6.67;5.47;;;;;;;3.26;100.00;99429.23;1683868;83;21887;-57
2022/12/15 12:44:34;;;;;;;5.53;5.03;;;;;;;3.30;100.00;99439.99;1728660;82;21495;-57
2022/12/15 12:47:18;;;;;;;6.85;5.67;;;;;;;3.32;100.00;99436.92;1716704;82;21436;-57
2022/12/15 12:49:48;;;;;;;6.97;5.78;;;;;;;3.28;100.00;99436.56;1721654;82;21220;-56
2022/12/15 12:52:30;;;;;;;5.83;5.33;;;;;;;3.30;100.00;99443.89;1722528;82;21625;-56
2022/12/15 13:07:46;;;;;;;5.87;5.37;;;;;;;3.19;100.00;99431.52;1723416;82;21563;-56
2022/12/15 13:10:19;;;;;;;7.55;5.47;;;;;;;3.15;100.00;99433.75;1722538;82;21495;-55
2022/12/15 13:12:59;;;;;;;6.55;5.70;;;;;;;3.16;100.00;99441.49;1723008;82;21783;-57
2022/12/15 13:15:34;;;;;;;6.35;5.75;;;;;;;3.14;100.00;99449.75;1721208;82;21542;-56
2022/12/15 13:18:16;;;;;;;6.25;5.65;;;;;;;3.12;100.00;99441.12;1718537;82;21451;-57
2022/12/15 13:20:45;;;;;;;6.20;5.60;;;;;;;3.18;100.00;99457.91;1716129;82;21503;-57
2022/12/15 13:23:26;;;;;;;6.53;5.95;;;;;;;3.17;100.00;99462.70;1722677;82;21590;-57
2022/12/15 13:26:01;;;;;;;6.08;5.53;;;;;;;3.21;100.00;99466.97;1719321;82;21455;-57
2022/12/15 13:28:44;;;;;;;6.62;5.47;;;;;;;3.29;100.00;99474.64;1714147;82;21506;-57
2022/12/15 13:35:25;;;;;;;5.70;5.20;;;;;;;3.23;100.00;99474.75;1719041;82;21598;-58
2022/12/15 13:38:01;;;;;;;6.12;5.53;;;;;;;3.23;100.00;99482.54;1742974;80;21476;-57
2022/12/15 13:40:41;;;;;;;6.55;5.90;;;;;;;3.19;100.00;99483.03;1710904;83;21987;-57
2022/12/15 13:43:30;;;;;;;7.08;6.37;;;;;;;3.19;100.00;99484.33;1729347;81;21493;-56
2022/12/15 13:45:59;;;;;;;6.53;5.40;;;;;;;3.23;100.00;99484.69;1738217;81;21503;-56
2022/12/15 13:48:37;;;;;;;5.65;5.15;;;;;;;3.27;100.00;99489.41;1704120;81;21511;-56
2022/12/15 13:51:25;;;;;;;5.97;5.42;;;;;;;3.32;100.00;99486.30;1716384;81;21569;-56
2022/12/15 13:54:22;;;;;;;5.55;5.05;;;;;;;3.34;100.00;99496.23;1718652;82;21408;-60
2022/12/15 13:57:08;;;;;;;5.67;5.17;;;;;;;3.32;100.00;99488.90;1711966;83;21463;-57
2022/12/15 14:00:01;;;;;;;5.97;5.22;;;;;;;3.31;100.00;99491.06;1705678;83;21482;-58
2022/12/15 14:02:34;;;;;;;5.60;5.10;;;;;;;3.31;100.00;99486.75;1717283;83;21030;-58
2022/12/15 18:26:36;;;;;;;11.25;9.28;;;;;;;0.58;100.00;99839.28;1787371;78;23173;-58
2022/12/15 18:29:16;;;;;;;11.28;10.10;;;;;;;1.75;100.00;99958.77;1765809;80;21572;-58
2022/12/15 18:31:43;;;;;;;15.50;11.83;;;;;;;2.17;100.00;99950.47;1763168;80;21895;-57
2022/12/15 18:34:14;;;;;;;13.75;11.60;;;;;;;2.24;100.00;99941.80;1754657;80;21430;-60
2022/12/15 18:36:41;;;;;;;13.58;10.82;;;;;;;2.33;100.00;99929.20;1767905;80;21418;-59
2022/12/15 18:39:16;;;;;;;13.95;11.05;;;;;;;2.41;100.00;99913.17;1757884;80;21482;-60
2022/12/15 18:41:43;;;;;;;11.48;9.88;;;;;;;2.45;100.00;99899.30;1759021;80;21561;-59
2022/12/15 18:44:18;;;;;;;14.35;11.33;;;;;;;2.57;100.00;99886.67;1759289;80;21813;-59
2022/12/15 18:46:47;;;;;;;13.05;10.13;;;;;;;2.68;100.00;99876.23;1752923;80;21072;-58
2022/12/15 18:49:13;;;;;;;12.00;10.20;;;;;;;2.71;100.00;99860.20;1752873;80;21041;-58
2022/12/15 18:51:40;;;;;;;12.80;10.28;;;;;;;2.81;100.00;99845.84;1768443;80;21462;-59
2022/12/15 18:54:12;;;;;;;13.35;11.08;;;;;;;2.87;100.00;99840.15;1771032;80;21528;-59
2022/12/15 18:56:38;;;;;;;15.90;12.23;;;;;;;2.90;100.00;99824.97;1756127;80;22006;-57
2022/12/15 18:59:11;;;;;;;16.97;11.43;;;;;;;2.87;100.00;99815.92;1763418;80;21541;-57
2022/12/15 19:01:37;;;;;;;14.38;10.38;;;;;;;2.93;100.00;99806.33;1758776;80;21454;-59
2022/12/15 19:04:04;;;;;;;13.72;10.35;;;;;;;3.01;100.00;99793.70;1772822;80;21052;-57
2022/12/15 19:06:37;;;;;;;;;;;;;;;3.06;100.00;99790.19;1758435;80;21493;-56
2022/12/15 19:09:07;;;;;;;15.50;11.08;;;;;;;3.00;100.00;99769.92;1736367;80;21857;-56
2022/12/15 19:11:34;;;;;;;14.03;11.33;;;;;;;3.12;100.00;99756.34;1765136;80;21624;-59
2022/12/15 19:14:02;;;;;;;13.50;10.98;;;;;;;3.13;100.00;99749.44;1757316;80;21815;-59
2022/12/15 19:22:25;;;;;;;13.93;11.20;;;;;;;3.13;100.00;99744.23;1741176;80;21533;-59
2022/12/15 19:24:15;;;;;;;13.38;9.58;;;;;;;3.18;100.00;99746.77;1712953;83;21431;-56
2022/12/15 19:26:42;;;;;;;14.53;10.35;;;;;;;3.11;100.00;99752.48;1704382;82;21460;-57
2022/12/15 19:29:18;;;;;;;11.70;9.70;;;;;;;3.09;100.00;99752.95;1765078;80;21564;-57
2022/12/15 19:31:45;;;;;;;12.98;10.05;;;;;;;3.18;100.00;99755.86;1753518;80;21001;-58
2022/12/15 19:34:12;;;;;;;13.10;9.98;;;;;;;3.26;100.00;99760.11;1764204;80;21803;-57
2022/12/15 19:36:39;;;;;;;12.53;10.03;;;;;;;3.32;100.00;99764.37;1761052;80;21522;-57
2022/12/15 19:39:09;;;;;;;14.75;10.43;;;;;;;3.35;100.00;99759.58;1754889;80;22091;-57
2022/12/15 19:41:36;;;;;;;14.45;10.68;;;;;;;3.33;100.00;99759.59;1754452;80;20996;-57
2022/12/15 19:44:14;;;;;;;14.50;12.00;;;;;;;3.44;100.00;99769.87;1764406;80;22023;-58
2022/12/15 19:46:41;;;;;;;13.13;9.68;;;;;;;3.44;100.00;99788.06;1756359;80;21818;-57
2022/12/15 19:49:08;;;;;;;11.60;9.25;;;;;;;3.42;100.00;99783.33;1760078;80;21107;-58
2022/12/15 19:51:35;;;;;;;13.75;9.10;;;;;;;3.39;100.00;99787.25;1759862;80;21478;-56
2022/12/15 19:54:02;;;;;;;10.00;8.35;;;;;;;3.43;100.00;99783.31;1751203;80;21836;-57
2022/12/15 19:56:29;;;;;;;13.22;8.75;;;;;;;3.51;100.00;99784.08;1758804;80;21549;-56
2022/12/15 19:58:55;;;;;;;10.60;8.45;;;;;;;3.54;100.00;99775.36;1700495;80;21806;-57
2022/12/15 20:01:22;;;;;;;13.93;10.18;;;;;;;3.53;100.00;99771.06;1764936;80;21453;-57
2022/12/15 20:03:50;;;;;;;12.65;9.75;;;;;;;3.48;100.00;99775.45;1758148;80;21435;-56
2022/12/15 20:06:23;;;;;;;12.88;9.70;;;;;;;3.51;100.00;99775.42;1745168;80;21549;-57
2022/12/15 20:08:53;;;;;;;13.08;9.55;;;;;;;3.54;100.00;99777.97;1763278;80;21687;-57
2022/12/15 20:11:23;;;;;;;14.80;10.38;;;;;;;3.54;100.00;99776.66;1760823;80;22070;-56
2022/12/15 20:13:50;;;;;;;13.72;9.55;;;;;;;3.46;100.00;99787.16;1762065;80;21438;-57
2022/12/15 20:16:18;;;;;;;12.03;9.73;;;;;;;3.41;100.00;99800.67;1760910;80;21526;-57
2022/12/15 20:18:46;;;;;;;10.65;9.23;;;;;;;3.45;100.00;99806.70;1763637;80;21820;-58
2022/12/15 20:21:13;;;;;;;11.10;9.13;;;;;;;3.55;100.00;99810.90;1757163;80;21553;-57
2022/12/15 20:23:59;;;;;;;11.25;9.20;;;;;;;3.61;100.00;99817.77;1766628;80;21919;-57
2022/12/15 20:26:28;;;;;;;11.68;9.20;;;;;;;3.58;100.00;99814.78;1747225;80;21569;-57
2022/12/15 20:28:55;;;;;;;10.45;8.93;;;;;;;3.51;100.00;99820.47;1749132;80;21030;-57
2022/12/15 20:31:22;;;;;;;9.13;8.23;;;;;;;3.50;100.00;99840.87;1736691;80;21565;-57
2022/12/15 20:33:49;;;;;;;10.78;8.75;;;;;;;3.58;100.00;99842.50;1747188;80;21416;-58
2022/12/15 20:36:25;;;;;;;10.08;8.05;;;;;;;3.52;100.00;99848.63;1758025;80;21935;-57
2022/12/15 20:38:53;;;;;;;9.83;8.13;;;;;;;3.49;100.00;99853.43;1750864;80;21518;-57
2022/12/15 20:41:23;;;;;;;10.65;8.80;;;;;;;3.51;100.00;99850.81;1751053;80;21446;-56
2022/12/15 20:43:50;;;;;;;9.95;8.43;;;;;;;3.53;100.00;99845.61;1755984;80;21443;-57
2022/12/15 20:46:24;;;;;;;10.18;8.18;;;;;;;3.56;100.00;99833.85;1746879;80;21971;-57
2022/12/15 20:48:52;;;;;;;10.30;8.45;;;;;;;3.64;100.00;99837.25;1734368;80;21811;-56
2022/12/15 20:51:31;;;;;;;10.82;8.68;;;;;;;3.66;100.00;99832.89;1752506;80;21525;-57
2022/12/15 20:54:00;;;;;;;15.20;9.88;;;;;;;3.78;100.00;99824.92;1750155;80;21554;-58
2022/12/15 20:56:27;;;;;;;13.93;8.98;;;;;;;3.79;100.00;99814.95;1760288;80;21589;-57
2022/12/15 20:58:55;;;;;;;10.68;8.45;;;;;;;3.85;100.00;99803.16;1752178;80;21570;-57
2022/12/15 21:01:26;;;;;;;12.10;9.43;;;;;;;3.93;100.00;99813.47;1747553;80;22110;-56
2022/12/15 21:03:55;;;;;;;12.58;9.33;;;;;;;3.86;100.00;99815.72;1749613;80;21065;-57
2022/12/15 21:06:22;;;;;;;15.03;10.60;;;;;;;3.77;100.00;99800.23;1753632;80;21549;-57
2022/12/15 21:08:49;;;;;;;15.70;10.25;;;;;;;3.79;100.00;99794.59;1731333;80;21586;-56
2022/12/15 21:11:19;;;;;;;15.13;10.88;;;;;;;3.83;100.00;99798.88;1747275;80;21610;-57
2022/12/15 21:13:49;;;;;;;14.90;10.68;;;;;;;3.86;100.00;99797.09;1748098;80;21866;-59
2022/12/15 21:16:22;;;;;;;12.68;9.73;;;;;;;3.88;100.00;99808.34;1745664;80;21617;-57
2022/12/15 21:18:49;;;;;;;12.00;9.20;;;;;;;3.87;100.00;99822.66;1749208;80;21029;-58
2022/12/15 21:21:28;;;;;;;12.55;8.95;;;;;;;3.75;100.00;99839.28;1748423;80;20990;-58
2022/12/15 21:23:56;;;;;;;11.18;8.88;;;;;;;3.69;100.00;99817.23;1754042;80;21514;-57
2022/12/15 21:26:24;;;;;;;10.75;8.45;;;;;;;3.73;100.00;99851.45;1710102;82;21616;-57
2022/12/15 21:28:59;;;;;;;10.68;8.55;;;;;;;3.62;100.00;99842.45;1735097;82;21546;-57
2022/12/15 21:31:28;;;;;;;8.78;7.60;;;;;;;3.54;100.00;99846.02;1724474;80;21072;-59
2022/12/15 21:33:55;;;;;;;9.43;7.90;;;;;;;3.54;100.00;99848.16;1728545;80;21529;-58
2022/12/15 21:36:22;;;;;;;9.80;8.15;;;;;;;3.56;100.00;99857.25;1733105;80;22342;-58
2022/12/15 21:38:49;;;;;;;10.90;8.20;;;;;;;3.60;100.00;99860.23;1724168;82;21972;-58
2022/12/15 21:41:18;;;;;;;11.35;7.97;;;;;;;3.60;100.00;99875.84;1733557;80;21137;-58
2022/12/15 21:43:45;;;;;;;14.53;9.15;;;;;;;3.55;100.00;99878.50;1736461;80;21070;-58
2022/12/15 21:46:18;;;;;;;9.43;8.15;;;;;;;3.62;100.00;99883.22;1737375;80;21518;-58
2022/12/15 21:51:34;;;;;;;10.20;7.58;;;;;;;3.68;100.00;99874.03;1727829;80;21889;-57
2022/12/15 21:54:02;;;;;;;11.18;8.73;;;;;;;3.61;100.00;99880.17;1737260;80;21489;-58
2022/12/15 21:56:29;;;;;;;9.90;7.95;;;;;;;3.59;100.00;99867.19;1729933;80;21552;-57
2022/12/15 21:58:55;;;;;;;12.37;8.73;;;;;;;3.66;100.00;99881.84;1732495;80;21644;-58
2022/12/15 22:01:24;;;;;;;12.18;8.38;;;;;;;3.74;100.00;99889.56;1728466;82;21557;-58
2022/12/15 22:03:52;;;;;;;10.85;7.90;;;;;;;3.82;100.00;99882.52;1730034;80;21929;-58
2022/12/15 22:06:21;;;;;;;11.38;8.75;;;;;;;3.81;100.00;99886.47;1721273;80;21415;-58
2022/12/15 22:08:52;;;;;;;11.38;8.70;;;;;;;3.82;100.00;99902.48;1719955;80;21495;-58
2022/12/15 22:11:24;;;;;;;11.93;8.83;;;;;;;3.85;100.00;99899.86;1705561;82;21446;-58
2022/12/15 22:13:52;;;;;;;10.75;8.45;;;;;;;3.81;100.00;99901.63;1723907;80;21441;-58
2022/12/15 22:16:18;;;;;;;;;;;;;;;3.77;100.00;99899.95;1728417;80;21482;-57
2022/12/15 22:18:53;;;;;;;10.73;7.80;;;;;;;3.63;100.00;99901.82;1727130;80;20452;-57
2022/12/15 22:21:19;;;;;;;10.85;8.55;;;;;;;3.68;100.00;99911.30;1733759;81;21437;-57
2022/12/15 22:23:49;;;;;;;9.45;8.15;;;;;;;3.72;100.00;99913.88;1722809;80;21553;-57
2022/12/15 22:26:23;;;;;;;14.98;8.60;;;;;;;3.71;100.00;99912.98;1730254;80;21557;-57
2022/12/15 22:28:49;;;;;;;12.55;8.03;;;;;;;3.61;100.00;99916.58;1746369;80;21414;-58
2022/12/15 22:31:16;;;;;;;10.23;7.97;;;;;;;3.52;100.00;99922.72;1757449;80;21782;-57
2022/12/15 22:33:43;;;;;;;8.83;7.90;;;;;;;3.49;100.00;99926.22;1747167;80;21537;-58
2022/12/15 22:36:09;;;;;;;11.30;8.55;;;;;;;3.55;100.00;99917.95;1744203;80;21013;-58
2022/12/15 22:38:36;;;;;;;10.00;7.97;;;;;;;3.56;100.00;99920.54;1756686;80;21531;-58
2022/12/15 22:41:03;;;;;;;8.23;6.97;;;;;;;3.59;100.00;99923.09;1745297;80;21714;-57
2022/12/15 22:43:41;;;;;;;9.03;8.03;;;;;;;3.62;100.00;99921.77;1758737;80;21557;-58
2022/12/15 22:46:11;;;;;;;9.23;7.78;;;;;;;3.68;100.00;99919.55;1738316;80;20998;-58
2022/12/15 22:48:40;;;;;;;12.55;8.85;;;;;;;3.77;100.00;99909.05;1748543;80;21448;-58
2022/12/15 22:51:10;;;;;;;10.68;9.13;;;;;;;3.87;100.00;99912.41;1749838;80;20998;-57
2022/12/15 22:53:38;;;;;;;12.35;9.83;;;;;;;3.91;100.00;99895.88;1708070;80;21392;-58
2022/12/15 22:56:22;;;;;;;24.57;18.27;;;;;;;3.93;100.00;99887.61;1757069;80;21502;-58
2022/12/15 22:58:52;;;;;;;20.10;15.63;;;;;;;3.95;100.00;99891.05;1751219;80;21385;-57
2022/12/15 23:01:18;;;;;;;16.48;12.63;;;;;;;4.04;100.00;99897.90;1748276;80;21447;-57
2022/12/15 23:03:45;;;;;;;14.73;11.63;;;;;;;4.10;100.00;99897.81;1751943;80;21494;-58
2022/12/15 23:06:11;;;;;;;12.37;8.93;;;;;;;4.10;100.00;99885.66;1751191;80;21745;-57
2022/12/15 23:08:38;;;;;;;10.88;9.00;;;;;;;4.13;100.00;99883.48;1761549;80;21026;-58
